createdAt,value
2022-12-11T00:00:03.054Z,83.7
2022-12-11T00:03:03.057Z,83.7
2022-12-11T00:06:02.947Z,83.7
2022-12-11T00:09:02.924Z,83.7
2022-12-11T00:12:02.966Z,83.7
2022-12-11T00:15:02.889Z,83.7
2022-12-11T00:18:02.945Z,83.7
2022-12-11T00:21:02.990Z,83.7
2022-12-11T00:24:02.961Z,83.9
2022-12-11T00:27:02.912Z,83.9
2022-12-11T00:30:02.988Z,83.9
2022-12-11T00:33:03.123Z,84
2022-12-11T00:36:02.926Z,84
2022-12-11T00:39:02.928Z,84
2022-12-11T00:42:02.954Z,84
2022-12-11T00:45:02.924Z,84
2022-12-11T00:48:02.988Z,84
2022-12-11T00:51:03.049Z,84
2022-12-11T00:54:02.887Z,84
2022-12-11T00:57:02.948Z,84
2022-12-11T01:00:02.994Z,84
2022-12-11T01:03:03.309Z,84
2022-12-11T01:06:02.966Z,84
2022-12-11T01:09:03.032Z,84
2022-12-11T01:12:02.937Z,84
2022-12-11T01:15:02.966Z,84
2022-12-11T01:18:02.982Z,84
2022-12-11T01:21:03.069Z,84
2022-12-11T01:24:02.972Z,83.2
2022-12-11T01:27:02.921Z,83.2
2022-12-11T01:30:02.948Z,83.2
2022-12-11T01:33:02.887Z,83.2
2022-12-11T01:36:04.018Z,83.2
2022-12-11T01:39:02.950Z,83.2
2022-12-11T01:42:03.010Z,83.2
2022-12-11T01:45:03.090Z,83.2
2022-12-11T01:48:03.388Z,83.2
2022-12-11T01:51:03.946Z,83.2
2022-12-11T01:54:03.499Z,83.2
2022-12-11T01:57:02.928Z,83.2
2022-12-11T02:00:02.968Z,83.2
2022-12-11T02:03:03.041Z,83.2
2022-12-11T02:06:02.985Z,83.2
2022-12-11T02:09:02.937Z,83.2
2022-12-11T02:12:03.009Z,83.2
2022-12-11T02:15:02.964Z,83.2
2022-12-11T02:18:03.052Z,83.2
2022-12-11T02:21:03.058Z,82.6
2022-12-11T02:24:03.219Z,82.6
2022-12-11T02:27:02.933Z,82.6
2022-12-11T02:30:03.060Z,82.6
2022-12-11T02:33:03.156Z,82.6
2022-12-11T02:36:02.943Z,82.6
2022-12-11T02:39:02.933Z,82.6
2022-12-11T02:42:03.018Z,82.6
2022-12-11T02:45:02.896Z,82.6
2022-12-11T02:48:03.759Z,82.6
2022-12-11T02:51:02.985Z,82.6
2022-12-11T02:54:03.290Z,82.6
2022-12-11T02:57:04.122Z,82.6
2022-12-11T03:00:03.001Z,82.6
2022-12-11T03:03:02.953Z,82.6
2022-12-11T03:06:02.994Z,82.6
2022-12-11T03:09:02.963Z,82.4
2022-12-11T03:12:03.012Z,82.4
2022-12-11T03:15:02.917Z,82.4
2022-12-11T03:18:03.050Z,82.3
2022-12-11T03:21:02.998Z,82.3
2022-12-11T03:24:03.267Z,82.3
2022-12-11T03:27:10.940Z,82.3
2022-12-11T03:30:03.477Z,82.3
2022-12-11T03:33:03.339Z,82.3
2022-12-11T03:36:03.378Z,82.3
2022-12-11T03:39:02.989Z,82.3
2022-12-11T03:42:03.281Z,82.3
2022-12-11T03:45:03.519Z,82.3
2022-12-11T03:48:03.199Z,82.3
2022-12-11T03:51:03.019Z,82.3
2022-12-11T03:54:03.393Z,82.3
2022-12-11T03:57:02.988Z,82.3
2022-12-11T04:00:03.150Z,82.3
2022-12-11T04:03:04.075Z,82.3
2022-12-11T04:06:03.005Z,82.3
2022-12-11T04:09:02.991Z,82.3
2022-12-11T04:12:03.034Z,81.8
2022-12-11T04:15:02.953Z,81.8
2022-12-11T04:18:02.986Z,81.8
2022-12-11T04:21:03.108Z,81.8
2022-12-11T04:24:03.136Z,81.8
2022-12-11T04:27:03.298Z,81.8
2022-12-11T04:30:03.350Z,81.8
2022-12-11T04:33:03.229Z,81.8
2022-12-11T04:36:03.088Z,81.8
2022-12-11T04:39:03.079Z,81.8
2022-12-11T04:42:03.365Z,81.1
2022-12-11T04:45:02.954Z,81.1
2022-12-11T04:48:03.157Z,81.1
2022-12-11T04:51:05.979Z,81.1
2022-12-11T04:54:09.351Z,81.1
2022-12-11T04:57:06.220Z,81.1
2022-12-11T05:00:15.425Z,81.1
2022-12-11T05:03:04.690Z,81.1
2022-12-11T05:18:02.965Z,82.7
2022-12-11T05:21:02.915Z,82.7
2022-12-11T05:24:03.075Z,82.7
2022-12-11T05:27:02.961Z,82.7
2022-12-11T05:33:02.930Z,82.7
2022-12-11T05:36:02.992Z,82.7
2022-12-11T05:39:02.898Z,82.7
2022-12-11T05:42:02.987Z,82.7
2022-12-11T05:45:03.029Z,82.7
2022-12-11T05:48:02.921Z,82.7
2022-12-11T05:51:02.944Z,82.7
2022-12-11T05:54:02.952Z,82.7
2022-12-11T05:57:02.929Z,83.2
2022-12-11T06:00:03.018Z,83.2
2022-12-11T06:03:03.349Z,83.2
2022-12-11T06:06:02.978Z,83.2
2022-12-11T06:09:02.930Z,83.2
2022-12-11T06:12:02.895Z,83.2
2022-12-11T06:15:02.980Z,83.2
2022-12-11T06:18:02.961Z,83.2
2022-12-11T06:21:02.933Z,83.2
2022-12-11T06:24:02.967Z,83.2
2022-12-11T06:27:02.913Z,83.2
2022-12-11T06:30:03.195Z,83.2
2022-12-11T06:33:02.932Z,83.2
2022-12-11T06:36:02.979Z,83.2
2022-12-11T06:39:02.926Z,83.2
2022-12-11T06:42:02.953Z,83.2
2022-12-11T06:45:02.955Z,83.2
2022-12-11T06:48:03.024Z,83.2
2022-12-11T06:51:02.896Z,82.5
2022-12-11T06:54:02.947Z,82.5
2022-12-11T06:57:02.943Z,82.5
2022-12-11T07:00:03.205Z,82.5
2022-12-11T07:03:02.936Z,82.5
2022-12-11T07:06:02.919Z,82.5
2022-12-11T07:09:02.956Z,82.5
2022-12-11T07:12:03.178Z,82.5
2022-12-11T07:15:03.004Z,82.5
2022-12-11T07:18:03.020Z,82.5
2022-12-11T07:21:03.001Z,82.5
2022-12-11T07:24:03.020Z,82.5
2022-12-11T07:27:03.051Z,82.5
2022-12-11T07:30:03.074Z,82.5
2022-12-11T07:33:03.156Z,81.1
2022-12-11T07:36:02.960Z,81.1
2022-12-11T07:39:02.995Z,81.1
2022-12-11T07:42:02.967Z,81.1
2022-12-11T07:45:03.009Z,81.1
2022-12-11T07:48:02.993Z,81.1
2022-12-11T07:51:03.036Z,81.1
2022-12-11T07:54:03.060Z,81.1
2022-12-11T07:57:02.991Z,81.1
2022-12-11T08:00:03.291Z,81.1
2022-12-11T08:03:02.987Z,81.1
2022-12-11T08:06:03.117Z,81.1
2022-12-11T08:09:02.988Z,81.1
2022-12-11T08:12:03.064Z,81.1
2022-12-11T08:15:03.014Z,81.1
2022-12-11T08:18:02.976Z,81.1
2022-12-11T08:21:02.958Z,81.1
2022-12-11T08:24:03.001Z,81.1
2022-12-11T08:27:03.022Z,81.1
2022-12-11T08:30:03.103Z,81.1
2022-12-11T08:33:02.949Z,81.1
2022-12-11T08:36:03.113Z,81.1
2022-12-11T08:39:02.964Z,81.1
2022-12-11T08:42:03.024Z,81.1
2022-12-11T08:45:03.079Z,80
2022-12-11T08:48:03.153Z,80
2022-12-11T08:51:02.927Z,80
2022-12-11T08:54:03.025Z,80
2022-12-11T08:57:02.959Z,80
2022-12-11T09:00:03.216Z,80
2022-12-11T09:03:02.956Z,80
2022-12-11T09:06:03.097Z,80
2022-12-11T09:09:03.046Z,80
2022-12-11T09:12:03.005Z,80
2022-12-11T09:15:02.948Z,80
2022-12-11T09:18:02.981Z,80
2022-12-11T09:21:03.006Z,80
2022-12-11T09:24:03.177Z,80
2022-12-11T09:27:02.950Z,80
2022-12-11T09:30:03.046Z,80
2022-12-11T09:33:03.042Z,80
2022-12-11T09:36:02.992Z,80
2022-12-11T09:39:03.065Z,80
2022-12-11T09:42:03.021Z,79.8
2022-12-11T09:45:03.023Z,79.8
2022-12-11T09:48:03.038Z,79.8
2022-12-11T09:51:02.971Z,79.8
2022-12-11T09:54:02.975Z,79.8
2022-12-11T09:57:02.970Z,79.8
2022-12-11T10:00:08.102Z,79.8
2022-12-11T10:03:03.157Z,79.8
2022-12-11T10:06:07.533Z,79.8
2022-12-11T10:09:02.964Z,79.8
2022-12-11T10:12:03.719Z,79.8
2022-12-11T10:15:03.096Z,79.8
2022-12-11T10:18:07.706Z,79.8
2022-12-11T10:21:02.955Z,79.8
2022-12-11T10:24:03.051Z,79.8
2022-12-11T10:27:02.952Z,79.8
2022-12-11T10:30:03.042Z,79.8
2022-12-11T10:33:02.988Z,79.8
2022-12-11T10:36:03.018Z,79.8
2022-12-11T10:39:03.018Z,79.5
2022-12-11T10:42:02.971Z,79.5
2022-12-11T10:45:03.093Z,79.5
2022-12-11T10:48:03.028Z,79.5
2022-12-11T10:51:03.013Z,79.5
2022-12-11T10:54:09.766Z,79.5
2022-12-11T10:57:03.671Z,79.5
2022-12-11T11:00:03.048Z,79.5
2022-12-11T11:03:03.219Z,79.5
2022-12-11T11:06:03.181Z,79.5
2022-12-11T11:09:02.981Z,79.5
2022-12-11T11:12:10.479Z,79.5
2022-12-11T11:15:03.063Z,79.5
2022-12-11T11:18:02.977Z,79.2
2022-12-11T11:21:02.979Z,79.2
2022-12-11T11:24:03.024Z,79.2
2022-12-11T11:27:16.576Z,79.2
2022-12-11T11:30:03.022Z,79.2
2022-12-11T11:33:03.055Z,79.2
2022-12-11T11:36:03.006Z,77.3
2022-12-11T11:39:02.907Z,75.9
2022-12-11T11:42:03.016Z,75.9
2022-12-11T11:45:02.953Z,75.9
2022-12-11T11:48:09.533Z,75.9
2022-12-11T11:51:02.980Z,75.9
2022-12-11T11:54:03.020Z,75.9
2022-12-11T11:57:02.953Z,75.9
2022-12-11T12:00:03.081Z,75.9
2022-12-11T12:03:03.155Z,75.9
2022-12-11T12:06:03.357Z,75.9
2022-12-11T12:09:02.993Z,75.9
2022-12-11T12:12:03.025Z,75.9
2022-12-11T12:15:02.968Z,75.9
2022-12-11T12:18:03.052Z,75.9
2022-12-11T12:21:02.950Z,75.9
2022-12-11T12:24:02.989Z,75.9
2022-12-11T12:27:03.024Z,75.9
2022-12-11T12:30:03.110Z,75.9
2022-12-11T12:33:03.035Z,74.7
2022-12-11T12:36:09.485Z,74.7
2022-12-11T12:39:02.987Z,74.7
2022-12-11T12:42:10.326Z,74.7
2022-12-11T12:45:03.018Z,74.7
2022-12-11T12:48:03.021Z,74.7
2022-12-11T12:51:03.038Z,74.7
2022-12-11T12:54:05.562Z,74.7
2022-12-11T12:57:03.036Z,74.7
2022-12-11T13:00:04.776Z,74.7
2022-12-11T13:03:02.976Z,74.8
2022-12-11T13:06:03.041Z,74.8
2022-12-11T13:09:03.052Z,74.8
2022-12-11T13:12:03.009Z,74.8
2022-12-11T13:15:03.046Z,74.8
2022-12-11T13:18:03.170Z,74.8
2022-12-11T13:21:03.018Z,74.8
2022-12-11T13:24:03.015Z,74.8
2022-12-11T13:27:02.944Z,76.3
2022-12-11T13:30:03.082Z,76.3
2022-12-11T13:33:02.916Z,76.3
2022-12-11T13:36:03.034Z,76.3
2022-12-11T13:39:02.985Z,76.3
2022-12-11T13:42:03.118Z,76.3
2022-12-11T13:45:03.039Z,76.3
2022-12-11T13:48:03.147Z,76.3
2022-12-11T13:51:03.049Z,76.3
2022-12-11T13:54:03.012Z,76.3
2022-12-11T13:57:03.015Z,76.3
2022-12-11T14:00:03.087Z,76.3
2022-12-11T14:03:03.038Z,76.3
2022-12-11T14:06:03.046Z,76.3
2022-12-11T14:09:02.938Z,76.3
2022-12-11T14:12:02.994Z,76.3
2022-12-11T14:15:02.987Z,76.3
2022-12-11T14:18:03.068Z,76.3
2022-12-11T14:21:03.017Z,76.3
2022-12-11T14:24:02.999Z,76.3
2022-12-11T14:27:02.947Z,77.3
2022-12-11T14:30:03.106Z,77.3
2022-12-11T14:33:02.950Z,77.3
2022-12-11T14:36:03.040Z,77.3
2022-12-11T14:39:02.986Z,77.3
2022-12-11T14:42:03.007Z,77.3
2022-12-11T14:45:03.029Z,77.3
2022-12-11T14:48:02.962Z,77.3
2022-12-11T14:51:03.024Z,77.4
2022-12-11T14:54:03.009Z,77.4
2022-12-11T14:57:02.973Z,77.4
2022-12-11T15:00:03.123Z,77.4
2022-12-11T15:03:03.534Z,77.4
2022-12-11T15:06:03.068Z,77.4
2022-12-11T15:09:02.922Z,77.4
2022-12-11T15:12:02.945Z,77.4
2022-12-11T15:15:02.988Z,77.4
2022-12-11T15:18:02.931Z,77.4
2022-12-11T15:21:02.940Z,77.4
2022-12-11T15:24:02.917Z,77.4
2022-12-11T15:27:02.993Z,77.5
2022-12-11T15:30:03.108Z,77.5
2022-12-11T15:33:02.917Z,77.5
2022-12-11T15:36:02.981Z,77.5
2022-12-11T15:39:02.955Z,77.5
2022-12-11T15:42:02.977Z,77.5
2022-12-11T15:45:03.054Z,77.5
2022-12-11T15:48:02.989Z,77.5
2022-12-11T15:51:02.970Z,77.5
2022-12-11T15:54:02.972Z,77.5
2022-12-11T15:57:02.947Z,77.5
2022-12-11T16:00:03.565Z,77.5
2022-12-11T16:03:02.958Z,77.5
2022-12-11T16:06:02.977Z,77.5
2022-12-11T16:09:03.001Z,77.5
2022-12-11T16:12:02.993Z,78.5
2022-12-11T16:15:03.035Z,78.5
2022-12-11T16:18:02.982Z,78.5
2022-12-11T16:21:02.924Z,79.3
2022-12-11T16:24:03.159Z,79.3
2022-12-11T16:27:03.104Z,79.3
2022-12-11T16:30:03.024Z,79.3
2022-12-11T16:33:05.900Z,79.3
2022-12-11T16:36:02.970Z,79.3
2022-12-11T16:39:02.988Z,79.3
2022-12-11T16:42:02.991Z,79.3
2022-12-11T16:45:02.992Z,79.3
2022-12-11T16:48:02.966Z,79.3
2022-12-11T16:51:03.016Z,79.3
2022-12-11T16:54:02.951Z,79.3
2022-12-11T16:57:03.034Z,79.3
2022-12-11T17:00:02.972Z,79.3
2022-12-11T17:03:03.064Z,79.3
2022-12-11T17:06:02.974Z,79.3
2022-12-11T17:09:02.930Z,79.3
2022-12-11T17:12:02.937Z,79.3
2022-12-11T17:15:03.009Z,79.3
2022-12-11T17:18:03.385Z,79.3
2022-12-11T17:21:02.965Z,81.6
2022-12-11T17:24:02.995Z,81.6
2022-12-11T17:27:02.959Z,81.6
2022-12-11T17:30:03.097Z,81.6
2022-12-11T17:33:02.919Z,81.6
2022-12-11T17:36:02.979Z,81.6
2022-12-11T17:39:02.946Z,81.6
2022-12-11T17:42:02.941Z,81.6
2022-12-11T17:45:02.972Z,81.6
2022-12-11T17:48:02.958Z,81.6
2022-12-11T17:51:02.921Z,81.6
2022-12-11T17:54:03.013Z,81.6
2022-12-11T17:57:02.947Z,81.6
2022-12-11T18:00:02.963Z,81.6
2022-12-11T18:03:02.976Z,81.6
2022-12-11T18:06:02.960Z,81.6
2022-12-11T18:09:02.913Z,81.6
2022-12-11T18:12:02.969Z,82.6
2022-12-11T18:15:02.913Z,82.6
2022-12-11T18:18:02.930Z,82.6
2022-12-11T18:21:02.966Z,82.6
2022-12-11T18:24:02.955Z,82.6
2022-12-11T18:27:02.920Z,82.6
2022-12-11T18:30:03.034Z,82.6
2022-12-11T18:33:02.918Z,82.6
2022-12-11T18:36:02.940Z,82.6
2022-12-11T18:39:02.928Z,82.3
2022-12-11T18:42:35.540Z,82.3
2022-12-11T18:45:02.956Z,82.3
2022-12-11T18:48:02.936Z,82.3
2022-12-11T18:51:02.994Z,82.3
2022-12-11T18:54:02.931Z,82.3
2022-12-11T18:57:02.928Z,82.3
2022-12-11T19:00:02.963Z,82.3
2022-12-11T19:03:02.937Z,82.3
2022-12-11T19:06:02.917Z,82.3
2022-12-11T19:09:02.960Z,81.8
2022-12-11T19:12:02.973Z,81.8
2022-12-11T19:15:02.985Z,81.8
2022-12-11T19:18:02.911Z,81.8
2022-12-11T19:21:12.541Z,81.8
2022-12-11T19:24:02.931Z,81.8
2022-12-11T19:27:03.904Z,81.8
2022-12-11T19:30:03.022Z,81.8
2022-12-11T19:33:02.922Z,81.8
2022-12-11T19:36:02.996Z,81.8
2022-12-11T19:39:12.747Z,81.8
2022-12-11T19:42:02.956Z,81.8
2022-12-11T19:45:03.002Z,81.8
2022-12-11T19:48:02.973Z,81.8
2022-12-11T19:51:02.944Z,81.8
2022-12-11T19:54:03.017Z,81.8
2022-12-11T19:57:02.911Z,81.8
2022-12-11T20:00:03.063Z,81.8
2022-12-11T20:03:03.020Z,83.3
2022-12-11T20:06:02.964Z,83.3
2022-12-11T20:09:03.140Z,83.3
2022-12-11T20:12:03.013Z,83.3
2022-12-11T20:15:03.006Z,83.3
2022-12-11T20:18:02.918Z,83.3
2022-12-11T20:21:02.920Z,83.3
2022-12-11T20:24:02.998Z,83.3
2022-12-11T20:27:02.957Z,83.3
2022-12-11T20:30:02.961Z,83.3
2022-12-11T20:33:02.951Z,82.9
2022-12-11T20:36:02.907Z,82.9
2022-12-11T20:39:02.940Z,82.9
2022-12-11T20:42:02.976Z,82.9
2022-12-11T20:45:02.916Z,82.9
2022-12-11T20:48:02.917Z,82.9
2022-12-11T20:51:02.947Z,82.9
2022-12-11T20:54:02.904Z,82.8
2022-12-11T20:57:02.936Z,82.8
2022-12-11T21:00:03.037Z,82.8
2022-12-11T21:03:02.897Z,82.8
2022-12-11T21:06:02.958Z,82.8
2022-12-11T21:09:02.924Z,82.8
2022-12-11T21:12:02.991Z,82.8
2022-12-11T21:15:02.975Z,82.8
2022-12-11T21:18:02.982Z,82.8
2022-12-11T21:21:02.902Z,82.8
2022-12-11T21:24:02.937Z,83.2
2022-12-11T21:27:02.917Z,83.2
2022-12-11T21:30:02.988Z,83.2
2022-12-11T21:33:02.923Z,83
2022-12-11T21:36:02.983Z,83
2022-12-11T21:39:02.931Z,83
2022-12-11T21:42:02.961Z,83
2022-12-11T21:48:02.947Z,83
2022-12-11T21:51:02.922Z,83
2022-12-11T21:54:02.926Z,83
2022-12-11T21:57:02.892Z,83
2022-12-11T22:00:02.965Z,83
2022-12-11T22:03:02.922Z,83
2022-12-11T22:06:02.936Z,83
2022-12-11T22:09:02.903Z,83
2022-12-11T22:12:03.322Z,83
2022-12-11T22:15:02.983Z,83
2022-12-11T22:18:02.935Z,83
2022-12-11T22:21:03.009Z,83
2022-12-11T22:24:02.974Z,83.4
2022-12-11T22:27:03.216Z,83.3
2022-12-11T22:30:02.946Z,83.3
2022-12-11T22:33:02.931Z,83.3
2022-12-11T22:36:02.914Z,83.3
2022-12-11T22:39:03.019Z,83.3
2022-12-11T22:42:03.019Z,83.3
2022-12-11T22:45:02.942Z,83.3
2022-12-11T22:48:02.939Z,83.3
2022-12-11T22:51:02.979Z,83.3
2022-12-11T22:54:02.953Z,83.3
2022-12-11T22:57:03.062Z,83.3
2022-12-11T23:00:03.203Z,83.3
2022-12-11T23:03:03.309Z,83.3
2022-12-11T23:06:07.682Z,83.3
2022-12-11T23:09:03.172Z,83.3
2022-12-11T23:12:02.994Z,83.3
2022-12-11T23:15:02.957Z,83.3
2022-12-11T23:18:02.964Z,83.3
2022-12-11T23:21:02.989Z,84.1
2022-12-11T23:24:02.956Z,84.1
2022-12-11T23:27:02.975Z,84.1
2022-12-11T23:30:02.960Z,84.1
2022-12-11T23:33:02.957Z,84.1
2022-12-11T23:36:02.959Z,84.1
2022-12-11T23:39:02.915Z,84.1
2022-12-11T23:42:02.968Z,84.1
2022-12-11T23:45:02.992Z,84.1
2022-12-11T23:48:02.935Z,84.1
2022-12-11T23:51:03.045Z,84.1
2022-12-11T23:54:02.966Z,84.1
2022-12-11T23:57:02.930Z,84.1
